createdAt,value
2022-09-15T00:01:32.131Z,20.75
2022-09-15T00:05:35.407Z,20.77
2022-09-15T00:09:38.656Z,20.78
2022-09-15T00:13:42.350Z,20.80
2022-09-15T00:17:50.658Z,20.81
2022-09-15T00:21:54.009Z,20.82
2022-09-15T00:25:57.025Z,20.83
2022-09-15T00:30:00.106Z,20.84
2022-09-15T00:34:05.101Z,20.85
2022-09-15T00:38:09.929Z,20.88
2022-09-15T00:42:16.768Z,20.90
2022-09-15T00:46:23.711Z,20.92
2022-09-15T00:50:28.320Z,20.95
2022-09-15T00:54:36.565Z,20.95
2022-09-15T00:58:44.426Z,20.95
2022-09-15T01:02:49.368Z,20.93
2022-09-15T01:06:58.405Z,20.93
2022-09-15T01:11:02.662Z,20.92
2022-09-15T01:15:06.704Z,20.90
2022-09-15T01:19:32.391Z,20.90
2022-09-15T01:24:08.135Z,20.91
2022-09-15T01:28:45.598Z,20.90
2022-09-15T01:33:07.753Z,20.92
2022-09-15T01:37:17.083Z,20.91
2022-09-15T01:41:26.950Z,20.91
2022-09-15T01:45:33.425Z,20.91
2022-09-15T01:49:45.920Z,20.92
2022-09-15T01:53:50.826Z,20.90
2022-09-15T01:57:53.986Z,20.89
2022-09-15T02:02:04.140Z,20.88
2022-09-15T02:06:14.688Z,20.85
2022-09-15T02:10:25.921Z,20.83
2022-09-15T02:14:43.204Z,20.82
2022-09-15T02:18:57.602Z,20.82
2022-09-15T02:23:08.268Z,20.78
2022-09-15T02:27:17.346Z,20.79
2022-09-15T02:31:24.101Z,20.79
2022-09-15T02:35:29.608Z,20.80
2022-09-15T02:39:38.291Z,20.77
2022-09-15T02:43:46.455Z,20.73
2022-09-15T02:47:50.267Z,20.71
2022-09-15T02:51:53.486Z,20.67
2022-09-15T02:55:58.197Z,20.64
2022-09-15T03:00:17.303Z,20.61
2022-09-15T03:04:20.533Z,20.57
2022-09-15T03:08:23.839Z,20.55
2022-09-15T03:12:28.452Z,20.56
2022-09-15T03:16:34.712Z,20.55
2022-09-15T03:20:37.769Z,20.54
2022-09-15T03:24:42.421Z,20.55
2022-09-15T03:28:47.000Z,20.55
2022-09-15T03:32:50.100Z,20.59
2022-09-15T03:36:53.149Z,20.61
2022-09-15T03:41:01.575Z,20.63
2022-09-15T03:45:06.851Z,20.64
2022-09-15T03:49:09.865Z,20.64
2022-09-15T03:53:12.964Z,20.62
2022-09-15T03:57:15.981Z,20.57
2022-09-15T04:01:21.450Z,20.51
2022-09-15T04:05:24.496Z,20.48
2022-09-15T04:09:27.997Z,20.46
2022-09-15T04:13:30.967Z,20.45
2022-09-15T04:17:35.386Z,20.42
2022-09-15T04:21:38.552Z,20.39
2022-09-15T04:25:41.713Z,20.36
2022-09-15T04:29:44.954Z,20.32
2022-09-15T04:33:49.747Z,20.33
2022-09-15T04:37:55.533Z,20.30
2022-09-15T04:41:58.748Z,20.28
2022-09-15T04:46:02.263Z,20.28
2022-09-15T04:50:07.737Z,20.26
2022-09-15T04:54:13.719Z,20.28
2022-09-15T04:58:16.944Z,20.28
2022-09-15T05:02:20.016Z,20.28
2022-09-15T05:06:27.210Z,20.31
2022-09-15T05:10:37.559Z,20.33
2022-09-15T05:14:40.543Z,20.35
2022-09-15T05:18:45.248Z,20.35
2022-09-15T05:22:50.017Z,20.41
2022-09-15T05:26:53.155Z,20.43
2022-09-15T05:30:57.099Z,20.43
2022-09-15T05:35:00.183Z,20.44
2022-09-15T05:39:05.290Z,20.48
2022-09-15T05:43:08.347Z,20.54
2022-09-15T05:47:11.336Z,20.64
2022-09-15T05:51:15.303Z,20.72
2022-09-15T05:55:20.048Z,20.75
2022-09-15T05:59:23.511Z,20.81
2022-09-15T06:03:30.760Z,20.88
2022-09-15T06:07:34.196Z,20.92
2022-09-15T06:11:38.658Z,20.97
2022-09-15T06:15:42.012Z,21.04
2022-09-15T06:19:45.723Z,21.10
2022-09-15T06:23:54.658Z,21.17
2022-09-15T06:27:59.115Z,21.24
2022-09-15T06:32:03.064Z,21.33
2022-09-15T06:36:07.460Z,21.37
2022-09-15T06:40:11.348Z,21.43
2022-09-15T06:44:15.798Z,21.51
2022-09-15T06:48:24.884Z,21.59
2022-09-15T06:52:28.279Z,21.72
2022-09-15T06:56:35.734Z,21.75
2022-09-15T07:00:42.316Z,21.79
2022-09-15T07:04:45.312Z,21.83
2022-09-15T07:08:49.639Z,21.84
2022-09-15T07:12:52.581Z,21.87
2022-09-15T07:16:56.955Z,21.90
2022-09-15T07:21:01.088Z,22.00
2022-09-15T07:25:04.134Z,22.06
2022-09-15T07:29:08.081Z,22.11
2022-09-15T07:33:14.519Z,22.17
2022-09-15T07:37:17.558Z,22.24
2022-09-15T07:41:22.362Z,22.27
2022-09-15T07:45:25.608Z,22.30
2022-09-15T07:49:31.028Z,22.34
2022-09-15T07:53:34.297Z,22.38
2022-09-15T07:57:37.610Z,22.42
2022-09-15T08:01:40.805Z,22.46
2022-09-15T08:05:45.942Z,22.46
2022-09-15T08:09:49.147Z,22.47
2022-09-15T08:13:53.316Z,22.48
2022-09-15T08:18:20.031Z,22.50
2022-09-15T08:22:25.064Z,22.55
2022-09-15T08:26:30.441Z,22.59
2022-09-15T08:30:33.524Z,22.67
2022-09-15T08:34:36.873Z,22.73
2022-09-15T08:38:42.924Z,22.74
2022-09-15T08:42:50.214Z,22.79
2022-09-15T08:46:57.808Z,22.81
2022-09-15T08:51:06.799Z,22.84
2022-09-15T08:55:16.995Z,22.91
2022-09-15T08:59:21.761Z,23.08
2022-09-15T09:03:39.612Z,23.19
2022-09-15T09:07:56.827Z,23.31
2022-09-15T09:12:15.322Z,23.42
2022-09-15T09:16:38.168Z,23.49
2022-09-15T09:20:50.488Z,23.53
2022-09-15T09:24:56.360Z,23.50
2022-09-15T09:29:02.281Z,23.48
2022-09-15T09:33:20.086Z,23.46
2022-09-15T09:37:23.963Z,23.42
2022-09-15T09:41:35.729Z,23.35
2022-09-15T09:45:40.171Z,23.23
2022-09-15T09:49:47.931Z,23.14
2022-09-15T09:53:54.866Z,23.07
2022-09-15T09:58:13.514Z,23.03
2022-09-15T10:02:20.631Z,22.99
2022-09-15T10:06:24.053Z,22.92
2022-09-15T10:10:32.492Z,22.91
2022-09-15T10:14:37.745Z,22.82
2022-09-15T10:18:42.412Z,22.77
2022-09-15T10:22:45.704Z,22.73
2022-09-15T10:26:49.824Z,22.70
2022-09-15T10:31:05.338Z,22.67
2022-09-15T10:35:12.957Z,22.69
2022-09-15T10:39:29.023Z,22.67
2022-09-15T10:43:43.577Z,22.62
2022-09-15T10:48:04.073Z,22.56
2022-09-15T10:52:17.606Z,22.58
2022-09-15T10:56:28.951Z,22.55
2022-09-15T11:00:40.513Z,22.51
2022-09-15T11:05:05.952Z,22.47
2022-09-15T11:09:21.656Z,22.38
2022-09-15T11:13:30.805Z,22.32
2022-09-15T11:17:49.449Z,22.27
2022-09-15T11:21:57.088Z,22.22
2022-09-15T11:26:07.004Z,22.16
2022-09-15T11:30:18.555Z,22.12
2022-09-15T11:34:24.803Z,22.09
2022-09-15T11:38:36.710Z,22.07
2022-09-15T11:42:47.167Z,22.05
2022-09-15T11:47:01.972Z,22.04
2022-09-15T11:51:07.928Z,21.98
2022-09-15T11:55:21.142Z,21.95
2022-09-15T11:59:33.622Z,21.91
2022-09-15T12:03:41.337Z,21.86
2022-09-15T12:07:52.573Z,21.79
2022-09-15T12:11:58.286Z,21.74
2022-09-15T12:16:05.131Z,21.66
2022-09-15T12:20:18.717Z,21.62
2022-09-15T12:24:36.115Z,21.58
2022-09-15T12:28:42.535Z,21.58
2022-09-15T12:32:47.592Z,21.56
2022-09-15T12:36:53.234Z,21.55
2022-09-15T12:41:00.241Z,21.56
2022-09-15T12:45:06.070Z,21.57
2022-09-15T12:49:19.616Z,21.56
2022-09-15T12:53:26.130Z,21.55
2022-09-15T12:57:33.374Z,21.56
2022-09-15T13:01:49.604Z,21.57
2022-09-15T13:06:25.280Z,21.60
2022-09-15T13:10:36.686Z,21.62
2022-09-15T13:14:44.972Z,21.66
2022-09-15T13:18:49.666Z,21.72
2022-09-15T13:22:56.355Z,21.73
2022-09-15T13:27:03.295Z,21.77
2022-09-15T13:31:23.252Z,21.80
2022-09-15T13:35:50.099Z,21.83
2022-09-15T13:40:08.693Z,21.87
2022-09-15T13:45:01.533Z,21.89
2022-09-15T13:49:27.405Z,21.90
2022-09-15T13:53:48.839Z,21.91
2022-09-15T14:02:18.617Z,21.96
2022-09-15T14:06:27.444Z,21.94
2022-09-15T14:10:33.541Z,21.99
2022-09-15T14:14:40.049Z,22.02
2022-09-15T14:18:44.726Z,22.05
2022-09-15T14:22:51.568Z,22.08
2022-09-15T14:26:54.585Z,22.14
2022-09-15T14:30:57.892Z,22.15
2022-09-15T14:35:05.475Z,22.17
2022-09-15T14:39:21.538Z,22.18
2022-09-15T14:43:26.003Z,22.17
2022-09-15T14:47:35.502Z,22.15
2022-09-15T14:51:39.642Z,22.16
2022-09-15T14:55:51.560Z,22.13
2022-09-15T14:59:58.028Z,22.15
2022-09-15T15:04:09.994Z,22.25
2022-09-15T15:08:22.483Z,22.39
2022-09-15T15:12:29.948Z,22.52
2022-09-15T15:16:33.158Z,22.60
2022-09-15T15:20:36.415Z,22.60
2022-09-15T15:24:42.081Z,22.57
2022-09-15T15:28:46.569Z,22.53
2022-09-15T15:32:49.699Z,22.39
2022-09-15T15:36:53.511Z,22.25
2022-09-15T15:41:02.581Z,22.15
2022-09-15T15:45:24.128Z,22.10
2022-09-15T15:49:29.285Z,22.05
2022-09-15T15:53:32.268Z,22.05
2022-09-15T15:57:40.657Z,22.07
2022-09-15T16:01:52.228Z,22.12
2022-09-15T16:05:58.589Z,22.11
2022-09-15T16:10:02.623Z,22.06
2022-09-15T16:14:05.604Z,22.03
2022-09-15T16:18:10.313Z,21.95
2022-09-15T16:22:19.443Z,21.88
2022-09-15T16:26:25.376Z,21.84
2022-09-15T16:30:28.899Z,21.79
2022-09-15T16:34:33.576Z,21.75
2022-09-15T16:38:37.636Z,21.68
2022-09-15T16:42:43.179Z,21.60
2022-09-15T16:46:46.752Z,21.57
2022-09-15T16:55:23.308Z,21.45
2022-09-15T16:59:26.365Z,21.39
2022-09-15T17:03:29.431Z,21.32
2022-09-15T17:07:33.849Z,21.26
2022-09-15T17:11:41.896Z,21.23
2022-09-15T17:16:02.715Z,21.21
2022-09-15T17:20:06.943Z,21.18
2022-09-15T17:24:12.073Z,21.12
2022-09-15T17:28:15.028Z,21.04
2022-09-15T17:32:18.064Z,21.02
2022-09-15T17:36:21.257Z,20.96
2022-09-15T17:40:25.722Z,20.94
2022-09-15T17:44:28.687Z,20.91
2022-09-15T17:48:31.893Z,20.89
2022-09-15T17:52:35.086Z,20.85
2022-09-15T17:56:39.485Z,20.82
2022-09-15T18:00:43.620Z,20.79
2022-09-15T18:04:47.027Z,20.76
2022-09-15T18:08:50.346Z,20.71
2022-09-15T18:12:55.891Z,20.67
2022-09-15T18:16:58.916Z,20.64
2022-09-15T18:21:02.443Z,20.58
2022-09-15T18:25:05.940Z,20.53
2022-09-15T18:29:10.320Z,20.46
2022-09-15T18:33:17.094Z,20.43
2022-09-15T18:37:21.222Z,20.41
2022-09-15T18:41:24.206Z,20.38
2022-09-15T18:45:28.568Z,20.33
2022-09-15T18:49:31.806Z,20.32
2022-09-15T18:53:36.544Z,20.31
2022-09-15T18:57:41.651Z,20.29
2022-09-15T19:01:46.336Z,20.27
2022-09-15T19:05:50.561Z,20.27
2022-09-15T19:09:56.452Z,20.27
2022-09-15T19:14:00.006Z,20.27
2022-09-15T19:18:05.021Z,20.23
2022-09-15T19:22:09.315Z,20.21
2022-09-15T19:26:15.795Z,20.19
2022-09-15T19:30:19.042Z,20.17
2022-09-15T19:34:23.651Z,20.16
2022-09-15T19:38:26.946Z,20.13
2022-09-15T19:42:30.238Z,20.13
2022-09-15T19:46:33.368Z,20.15
2022-09-15T19:50:39.494Z,20.14
2022-09-15T19:54:43.422Z,20.17
2022-09-15T19:58:47.422Z,20.18
2022-09-15T20:02:50.574Z,20.17
2022-09-15T20:06:55.318Z,20.14
2022-09-15T20:10:58.632Z,20.07
2022-09-15T20:15:01.850Z,20.02
2022-09-15T20:19:05.563Z,19.98
2022-09-15T20:23:10.119Z,19.88
2022-09-15T20:27:13.345Z,19.85
2022-09-15T20:31:19.163Z,19.77
2022-09-15T20:35:22.174Z,19.73
2022-09-15T20:39:26.586Z,19.73
2022-09-15T20:43:29.991Z,19.74
2022-09-15T20:47:33.275Z,19.71
2022-09-15T20:51:36.285Z,19.67
2022-09-15T20:55:40.611Z,19.67
2022-09-15T20:59:43.779Z,19.61
2022-09-15T21:03:47.823Z,19.62
2022-09-15T21:07:52.075Z,19.59
2022-09-15T21:11:56.714Z,19.61
2022-09-15T21:16:02.337Z,19.63
2022-09-15T21:20:06.326Z,19.61
2022-09-15T21:24:09.939Z,19.57
2022-09-15T21:28:14.575Z,19.51
2022-09-15T21:32:17.553Z,19.44
2022-09-15T21:36:22.514Z,19.37
2022-09-15T21:40:25.576Z,19.25
2022-09-15T21:44:30.002Z,19.12
2022-09-15T21:48:33.908Z,18.98
2022-09-15T21:52:37.155Z,18.91
2022-09-15T21:56:41.080Z,18.87
2022-09-15T22:00:45.479Z,18.84
2022-09-15T22:04:48.494Z,18.78
2022-09-15T22:08:51.535Z,18.75
2022-09-15T22:12:54.514Z,18.69
2022-09-15T22:16:59.087Z,18.61
2022-09-15T22:21:07.962Z,18.59
2022-09-15T22:25:11.222Z,18.59
2022-09-15T22:29:14.984Z,18.56
2022-09-15T22:33:19.602Z,18.53
2022-09-15T22:37:27.019Z,18.53
2022-09-15T22:41:29.991Z,18.51
2022-09-15T22:45:33.267Z,18.48
2022-09-15T22:49:37.836Z,18.43
2022-09-15T22:53:40.824Z,18.39
2022-09-15T22:57:43.841Z,18.36
2022-09-15T23:01:47.268Z,18.32
2022-09-15T23:05:59.160Z,18.28
2022-09-15T23:10:02.406Z,18.27
2022-09-15T23:14:05.577Z,18.24
2022-09-15T23:18:08.600Z,18.22
2022-09-15T23:22:12.948Z,18.18
2022-09-15T23:26:17.743Z,18.11
2022-09-15T23:30:20.729Z,18.05
2022-09-15T23:34:24.114Z,18.00
2022-09-15T23:38:29.245Z,17.95
2022-09-15T23:42:32.295Z,17.88
2022-09-15T23:46:35.780Z,17.81
2022-09-15T23:50:40.009Z,17.79
2022-09-15T23:54:44.432Z,17.77
2022-09-15T23:58:47.512Z,17.73
